Detall de PIREP

Printer-friendly versionPDF version

[2014/10/08 15:06:00]
Flight IATA:CT3205
Pilot Number:042
Company ICAO:CAT
Aircraft Type:F100/A
PAX:23
Aircraft Registration:PFJ
Departing Airport: EDDT
Destination Airport: LEPA
Alternate Airport:LEMH
Online: VATSIM
Route:BRANE Q201 BUREL UM736 TABAT UL87 ANELA UN869 NATOR UN850 EVANO UM984 DIVKO UN852 VERSO UL129 LUNIK
Flight Level:F330
No Slew and time accel
No pause
Crash detect
Detect pilot in Cockpit between each 30 and 45 minutes
15:06 Zero fuel Weight: 81827 Lbs, Fuel Weight: 22685 Lbs
15:06 VATSIM:EDDT 081450Z 17008KT 9999 -RA BKN026 BKN120 18/12 Q1009 TEMPO RA
15:06 VATSIM:LEPA 081430Z 23008KT 200V270 9999 FEW022 25/20 Q1012 NOSIG
15:07 Parking Brakes off
15:11 Take-off
15:11 Take off Weight: 104047 Lbs
15:11 Wind: 000º @ 000 Knots Heading: 260º
15:11 POS N52º 33´ 32´´ E013º 16´ 46´´
15:11 Gear Up: 176 Knots
15:11 Flaps:2 at 177 Knots
15:11 Flaps:1 at 194 Knots
15:12 Flaps:0 at 186 Knots
15:26 Wind:270º@025 Knots Heading: 190º Ground Speed: 307 Knots Altitude 28251 ft
15:34 TOC
15:34 Fuel Weight: 19516 Lb
15:41 Wind:270º@025 Knots Heading: 179º Ground Speed: 437 Knots Altitude 32998 ft
15:56 Wind:270º@025 Knots Heading: 228º Ground Speed: 417 Knots Altitude 32998 ft
16:11 Wind:270º@025 Knots Heading: 175º Ground Speed: 432 Knots Altitude 32998 ft
16:26 Wind:270º@025 Knots Heading: 177º Ground Speed: 437 Knots Altitude 32998 ft
16:41 Wind:270º@025 Knots Heading: 216º Ground Speed: 421 Knots Altitude 32998 ft
16:56 Wind:270º@025 Knots Heading: 249º Ground Speed: 412 Knots Altitude 32998 ft
17:11 Wind:270º@025 Knots Heading: 211º Ground Speed: 423 Knots Altitude 32995 ft
17:19 TOD
17:19 Fuel Weight: 11673 Lb
17:26 Wind:270º@025 Knots Heading: 204º Ground Speed: 342 Knots Altitude 23996 ft
17:41 Wind:339º@005 Knots Heading: 201º Ground Speed: 269 Knots Altitude 4055 ft
17:44 Flaps:1 at 196 Knots
17:44 Gear Down: 183 Knots
17:44 Flaps:2 at 184 Knots
17:44 Flaps:3 at 179 Knots
17:48 TouchDown:Rate -509 ft/min Speed: 129 Knots
17:48 VATSIM:LEPA 081730Z 20003KT 170V230 9999 FEW026 24/20 Q1012 NOSIG
17:48 Land
17:48 Wind:000º@000 Knots
17:48 Heading: 230º
17:48 Flight Duration: 02:37
17:48 Landing Weight: 92389 Lbs
17:48 POS N39º 33´ 18´´ E002º 43´ 38´´
17:52 Parking brakes on
17:52 Block to Block Duration: 02:45
17:52 Final Fuel: 10467 Lbls
17:52 Spent Fuel: 12217 Lbls
17:52 Flight Length: 991 NM
17:52 TOD Land Length: 136 NM

Exportar CSV

Powered by Drupal - Modified by Danger4k